createdAt,value
2019-01-08T00:01:55.030Z,96099.00
2019-01-08T00:04:44.585Z,96094.00
2019-01-08T00:07:27.094Z,96101.00
2019-01-08T00:10:09.223Z,96088.00
2019-01-08T00:12:51.299Z,96086.00
2019-01-08T00:15:31.901Z,96085.00
2019-01-08T00:18:21.416Z,96087.00
2019-01-08T00:21:10.984Z,96070.00
2019-01-08T00:24:00.660Z,96058.00
2019-01-08T00:26:43.019Z,96048.00
2019-01-08T00:29:25.177Z,96047.00
2019-01-08T00:32:07.179Z,96038.00
2019-01-08T00:34:56.730Z,96040.00
2019-01-08T00:37:46.244Z,96041.00
2019-01-08T00:40:28.700Z,96038.00
2019-01-08T00:43:10.492Z,96033.00
2019-01-08T00:45:52.619Z,96031.00
2019-01-08T00:48:34.547Z,96026.00
2019-01-08T00:51:16.928Z,96028.00
2019-01-08T00:53:59.406Z,96014.00
2019-01-08T00:56:48.962Z,96014.00
2019-01-08T00:59:31.272Z,96010.00
2019-01-08T01:02:13.780Z,96012.00
2019-01-08T01:04:55.857Z,96015.00
2019-01-08T01:07:38.298Z,95995.00
2019-01-08T01:10:27.802Z,96011.00
2019-01-08T01:13:17.350Z,95979.00
2019-01-08T01:16:06.908Z,95985.00
2019-01-08T01:18:49.324Z,95982.00
2019-01-08T01:21:29.967Z,95966.00
2019-01-08T01:24:12.090Z,95961.00
2019-01-08T01:27:01.600Z,95959.00
2019-01-08T01:29:43.669Z,95963.00
2019-01-08T01:32:25.748Z,95956.00
2019-01-08T01:35:07.923Z,95942.00
2019-01-08T01:37:50.245Z,95938.00
2019-01-08T01:40:32.911Z,95939.00
2019-01-08T01:43:15.433Z,95934.00
2019-01-08T01:45:57.283Z,95935.00
2019-01-08T01:48:39.603Z,95924.00
2019-01-08T01:51:21.721Z,95918.00
2019-01-08T01:54:03.683Z,95917.00
2019-01-08T01:56:46.206Z,95913.00
2019-01-08T01:59:28.551Z,95909.00
2019-01-08T02:02:10.787Z,95899.00
2019-01-08T02:04:54.491Z,95881.00
2019-01-08T02:07:36.899Z,95888.00
2019-01-08T02:10:19.286Z,95882.00
2019-01-08T02:16:15.806Z,95867.00
2019-01-08T02:19:01.376Z,95868.00
2019-01-08T02:24:58.766Z,95857.00
2019-01-08T02:27:41.410Z,95848.00
2019-01-08T02:30:23.592Z,95833.00
2019-01-08T02:33:32.152Z,95831.00
2019-01-08T02:36:14.470Z,95834.00
2019-01-08T02:41:55.885Z,95798.00
2019-01-08T02:44:38.831Z,95800.00
2019-01-08T02:47:20.697Z,95780.00
2019-01-08T02:50:02.797Z,95782.00
2019-01-08T02:52:45.006Z,95775.00
2019-01-08T02:55:27.145Z,95763.00
2019-01-08T02:58:09.450Z,95755.00
2019-01-08T03:00:51.144Z,95749.00
2019-01-08T03:03:32.867Z,95741.00
2019-01-08T03:06:41.475Z,95742.00
2019-01-08T03:09:24.010Z,95740.00
2019-01-08T03:12:06.481Z,95736.00
2019-01-08T03:14:49.125Z,95725.00
2019-01-08T03:17:30.973Z,95717.00
2019-01-08T03:20:13.495Z,95710.00
2019-01-08T03:22:55.609Z,95699.00
2019-01-08T03:25:38.800Z,95676.00
2019-01-08T03:28:20.915Z,95655.00
2019-01-08T03:31:03.088Z,95656.00
2019-01-08T03:33:43.608Z,95653.00
2019-01-08T03:36:26.019Z,95645.00
2019-01-08T03:39:15.530Z,95663.00
2019-01-08T03:41:58.057Z,95635.00
2019-01-08T03:44:40.180Z,95619.00
2019-01-08T03:47:29.736Z,95617.00
2019-01-08T03:50:11.713Z,95605.00
2019-01-08T03:52:52.256Z,95605.00
2019-01-08T03:55:34.426Z,95594.00
2019-01-08T03:58:23.905Z,95578.00
2019-01-08T04:01:04.490Z,95577.00
2019-01-08T04:03:46.904Z,95583.00
2019-01-08T04:06:36.415Z,95572.00
2019-01-08T04:09:18.854Z,95560.00
2019-01-08T04:11:59.474Z,95546.00
2019-01-08T04:14:41.821Z,95540.00
2019-01-08T04:17:50.510Z,95524.00
2019-01-08T04:20:31.052Z,95534.00
2019-01-08T04:23:14.585Z,95535.00
2019-01-08T04:26:04.119Z,95509.00
2019-01-08T04:28:44.787Z,95507.00
2019-01-08T04:31:53.413Z,95516.00
2019-01-08T04:34:35.822Z,95504.00
2019-01-08T04:37:44.422Z,95497.00
2019-01-08T04:40:27.050Z,95496.00
2019-01-08T04:43:10.624Z,95479.00
2019-01-08T04:45:53.206Z,95479.00
2019-01-08T04:48:35.454Z,95462.00
2019-01-08T04:51:17.964Z,95463.00
2019-01-08T04:53:59.842Z,95454.00
2019-01-08T04:56:42.284Z,95451.00
2019-01-08T04:59:24.443Z,95436.00
2019-01-08T05:02:06.509Z,95451.00
2019-01-08T05:04:48.503Z,95419.00
2019-01-08T05:07:30.868Z,95423.00
2019-01-08T05:10:39.514Z,95424.00
2019-01-08T05:13:21.426Z,95421.00
2019-01-08T05:16:03.615Z,95400.00
2019-01-08T05:18:46.036Z,95397.00
2019-01-08T05:21:28.650Z,95395.00
2019-01-08T05:24:10.486Z,95417.00
2019-01-08T05:27:00.011Z,95396.00
2019-01-08T05:29:42.454Z,95395.00
2019-01-08T05:32:24.664Z,95377.00
2019-01-08T05:35:08.507Z,95381.00
2019-01-08T05:37:50.915Z,95384.00
2019-01-08T05:40:33.179Z,95365.00
2019-01-08T05:43:15.411Z,95371.00
2019-01-08T05:45:57.725Z,95367.00
2019-01-08T05:48:40.319Z,95369.00
2019-01-08T05:51:48.884Z,95347.00
2019-01-08T05:54:31.357Z,95351.00
2019-01-08T05:57:39.915Z,95352.00
2019-01-08T06:00:20.626Z,95344.00
2019-01-08T06:03:03.062Z,95346.00
2019-01-08T06:06:11.478Z,95331.00
2019-01-08T06:08:54.087Z,95349.00
2019-01-08T06:11:36.062Z,95333.00
2019-01-08T06:14:44.646Z,95341.00
2019-01-08T06:17:34.193Z,95333.00
2019-01-08T06:20:16.272Z,95332.00
2019-01-08T06:22:56.804Z,95324.00
2019-01-08T06:25:40.956Z,95328.00
2019-01-08T06:28:30.448Z,95322.00
2019-01-08T06:31:12.856Z,95327.00
2019-01-08T06:33:55.238Z,95322.00
2019-01-08T06:36:37.797Z,95322.00
2019-01-08T06:39:20.131Z,95321.00
2019-01-08T06:42:02.101Z,95303.00
2019-01-08T06:47:58.584Z,95314.00
2019-01-08T06:50:40.899Z,95308.00
2019-01-08T06:53:23.020Z,95316.00
2019-01-08T06:56:05.975Z,95310.00
2019-01-08T07:01:49.508Z,95314.00
2019-01-08T07:04:31.667Z,95312.00
2019-01-08T07:07:13.925Z,95319.00
2019-01-08T07:13:17.994Z,95317.00
2019-01-08T07:15:59.966Z,95302.00
2019-01-08T07:18:41.872Z,95291.00
2019-01-08T07:21:26.664Z,95310.00
2019-01-08T07:24:09.276Z,95301.00
2019-01-08T07:26:51.159Z,95299.00
2019-01-08T07:29:33.283Z,95286.00
2019-01-08T07:32:13.512Z,95303.00
2019-01-08T07:34:55.814Z,95299.00
2019-01-08T07:38:04.219Z,95308.00
2019-01-08T07:40:45.967Z,95314.00
2019-01-08T07:43:28.286Z,95309.00
2019-01-08T07:46:10.461Z,95296.00
2019-01-08T07:48:52.837Z,95297.00
2019-01-08T07:51:35.053Z,95321.00
2019-01-08T07:54:43.627Z,95302.00
2019-01-08T07:57:26.210Z,95300.00
2019-01-08T08:00:15.713Z,95299.00
2019-01-08T08:03:24.173Z,95304.00
2019-01-08T08:06:13.774Z,95305.00
2019-01-08T08:09:22.352Z,95283.00
2019-01-08T08:12:04.325Z,95288.00
2019-01-08T08:14:48.669Z,95272.00
2019-01-08T08:17:57.257Z,95293.00
2019-01-08T08:20:39.856Z,95292.00
2019-01-08T08:23:48.277Z,95281.00
2019-01-08T08:26:32.393Z,95281.00
2019-01-08T08:29:14.767Z,95279.00
2019-01-08T08:31:57.084Z,95279.00
2019-01-08T08:34:39.369Z,95272.00
2019-01-08T08:37:21.572Z,95284.00
2019-01-08T08:40:03.636Z,95274.00
2019-01-08T08:42:45.677Z,95257.00
2019-01-08T08:45:27.877Z,95291.00
2019-01-08T08:48:10.142Z,95273.00
2019-01-08T08:50:52.143Z,95260.00
2019-01-08T08:53:34.257Z,95292.00
2019-01-08T08:56:16.614Z,95281.00
2019-01-08T08:58:59.332Z,95265.00
2019-01-08T09:01:41.945Z,95277.00
2019-01-08T09:04:24.020Z,95273.00
2019-01-08T09:07:06.412Z,95283.00
2019-01-08T09:09:48.764Z,95276.00
2019-01-08T09:12:30.668Z,95270.00
2019-01-08T09:15:16.413Z,95272.00
2019-01-08T09:17:59.019Z,95272.00
2019-01-08T09:20:41.319Z,95270.00
2019-01-08T09:23:23.261Z,95266.00
2019-01-08T09:26:03.963Z,95263.00
2019-01-08T09:28:46.281Z,95273.00
2019-01-08T09:31:35.880Z,95257.00
2019-01-08T09:34:20.087Z,95274.00
2019-01-08T09:37:28.414Z,95272.00
2019-01-08T09:40:10.512Z,95274.00
2019-01-08T09:42:52.633Z,95263.00
2019-01-08T09:45:52.901Z,95256.00
2019-01-08T09:48:42.447Z,95262.00
2019-01-08T09:51:24.843Z,95249.00
2019-01-08T09:54:14.406Z,95257.00
2019-01-08T09:57:22.976Z,95245.00
2019-01-08T10:00:05.100Z,95248.00
2019-01-08T10:02:47.688Z,95247.00
2019-01-08T10:05:30.038Z,95254.00
2019-01-08T10:08:12.547Z,95262.00
2019-01-08T10:10:54.880Z,95246.00
2019-01-08T10:13:36.793Z,95227.00
2019-01-08T10:16:20.884Z,95248.00
2019-01-08T10:19:03.087Z,95259.00
2019-01-08T10:21:45.332Z,95239.00
2019-01-08T10:24:27.713Z,95224.00
2019-01-08T10:27:10.220Z,95238.00
2019-01-08T10:29:52.047Z,95227.00
2019-01-08T10:32:41.677Z,95230.00
2019-01-08T10:35:24.221Z,95217.00
2019-01-08T10:38:05.991Z,95211.00
2019-01-08T10:40:48.412Z,95204.00
2019-01-08T10:43:30.390Z,95219.00
2019-01-08T10:46:12.616Z,95197.00
2019-01-08T10:48:54.818Z,95217.00
2019-01-08T10:51:36.818Z,95191.00
2019-01-08T10:54:19.199Z,95177.00
2019-01-08T10:57:01.568Z,95202.00
2019-01-08T11:00:10.351Z,95185.00
2019-01-08T11:02:50.788Z,95184.00
2019-01-08T11:05:33.139Z,95178.00
2019-01-08T11:08:22.627Z,95177.00
2019-01-08T11:11:04.860Z,95169.00
2019-01-08T11:13:46.806Z,95172.00
2019-01-08T11:16:28.620Z,95170.00
2019-01-08T11:19:10.533Z,95174.00
2019-01-08T11:21:52.719Z,95169.00
2019-01-08T11:24:35.094Z,95155.00
2019-01-08T11:27:17.403Z,95164.00
2019-01-08T11:29:59.906Z,95176.00
2019-01-08T11:32:41.685Z,95182.00
2019-01-08T11:35:23.797Z,95165.00
2019-01-08T11:38:05.907Z,95157.00
2019-01-08T11:40:48.058Z,95149.00
2019-01-08T11:43:37.631Z,95154.00
2019-01-08T11:46:27.189Z,95149.00
2019-01-08T11:52:17.990Z,95142.00
2019-01-08T11:55:03.068Z,95128.00
2019-01-08T11:58:02.560Z,95130.00
2019-01-08T12:00:44.397Z,95121.00
2019-01-08T12:03:26.426Z,95123.00
2019-01-08T12:06:09.839Z,95118.00
2019-01-08T12:08:52.103Z,95111.00
2019-01-08T12:11:32.539Z,95092.00
2019-01-08T12:14:14.867Z,95101.00
2019-01-08T12:17:04.446Z,95087.00
2019-01-08T12:19:46.262Z,95095.00
2019-01-08T12:22:28.548Z,95091.00
2019-01-08T12:25:10.650Z,95089.00
2019-01-08T12:27:53.083Z,95084.00
2019-01-08T12:30:33.430Z,95067.00
2019-01-08T12:33:42.013Z,95066.00
2019-01-08T12:36:23.712Z,95050.00
2019-01-08T12:39:07.092Z,95049.00
2019-01-08T12:41:49.428Z,95063.00
2019-01-08T12:44:31.492Z,95056.00
2019-01-08T12:47:13.676Z,95052.00
2019-01-08T12:49:55.999Z,95036.00
2019-01-08T12:52:38.335Z,95028.00
2019-01-08T12:55:20.624Z,95045.00
2019-01-08T12:58:03.050Z,95022.00
2019-01-08T13:00:45.125Z,95026.00
2019-01-08T13:03:27.404Z,95026.00
2019-01-08T13:06:08.029Z,95022.00
2019-01-08T13:08:53.456Z,95021.00
2019-01-08T13:11:42.989Z,95011.00
2019-01-08T13:14:51.594Z,95028.00
2019-01-08T13:17:33.727Z,95008.00
2019-01-08T13:20:42.284Z,95012.00
2019-01-08T13:23:24.327Z,95010.00
2019-01-08T13:26:06.571Z,95026.00
2019-01-08T13:28:48.890Z,95000.00
2019-01-08T13:31:29.574Z,95003.00
2019-01-08T13:34:11.439Z,94995.00
2019-01-08T13:36:53.353Z,95005.00
2019-01-08T13:39:42.914Z,95021.00
2019-01-08T13:42:25.336Z,95003.00
2019-01-08T13:45:07.578Z,95023.00
2019-01-08T13:47:50.267Z,95011.00
2019-01-08T13:50:32.786Z,95008.00
2019-01-08T13:53:14.965Z,95038.00
2019-01-08T13:55:57.211Z,94991.00
2019-01-08T13:58:39.452Z,95008.00
2019-01-08T14:01:21.494Z,94990.00
2019-01-08T14:04:03.712Z,94994.00
2019-01-08T14:06:45.994Z,94996.00
2019-01-08T14:09:27.836Z,95005.00
2019-01-08T14:12:10.015Z,94981.00
2019-01-08T14:14:52.261Z,94995.00
2019-01-08T14:17:34.521Z,94995.00
2019-01-08T14:20:16.881Z,95005.00
2019-01-08T14:22:59.261Z,94992.00
2019-01-08T14:26:07.847Z,94983.00
2019-01-08T14:28:49.595Z,94997.00
2019-01-08T14:31:32.129Z,95006.00
2019-01-08T14:34:13.988Z,95013.00
2019-01-08T14:36:55.767Z,95012.00
2019-01-08T14:39:37.693Z,95013.00
2019-01-08T14:42:18.349Z,95008.00
2019-01-08T14:45:00.813Z,95027.00
2019-01-08T14:47:50.400Z,95016.00
2019-01-08T14:50:32.277Z,95012.00
2019-01-08T14:53:14.313Z,95007.00
2019-01-08T14:55:56.235Z,95011.00
2019-01-08T14:58:38.413Z,94996.00
2019-01-08T15:01:20.130Z,95011.00
2019-01-08T15:04:02.320Z,95014.00
2019-01-08T15:06:44.368Z,95006.00
2019-01-08T15:09:26.492Z,94990.00
2019-01-08T15:12:08.297Z,94998.00
2019-01-08T15:14:50.673Z,94999.00
2019-01-08T15:17:32.984Z,94996.00
2019-01-08T15:20:15.228Z,95005.00
2019-01-08T15:22:57.264Z,94997.00
2019-01-08T15:25:39.715Z,95021.00
2019-01-08T15:28:21.826Z,94978.00
2019-01-08T15:31:04.704Z,94990.00
2019-01-08T15:33:46.778Z,94983.00
2019-01-08T15:36:29.023Z,94970.00
2019-01-08T15:39:12.305Z,94973.00
2019-01-08T15:41:54.499Z,94958.00
2019-01-08T15:44:36.710Z,94957.00
2019-01-08T15:47:19.267Z,94953.00
2019-01-08T15:50:01.021Z,94956.00
2019-01-08T15:52:43.297Z,94950.00
2019-01-08T15:55:32.795Z,94962.00
2019-01-08T15:58:15.222Z,94957.00
2019-01-08T16:00:57.015Z,94963.00
2019-01-08T16:03:39.325Z,94952.00
2019-01-08T16:06:21.640Z,94946.00
2019-01-08T16:09:04.345Z,94940.00
2019-01-08T16:11:47.117Z,94982.00
2019-01-08T16:14:29.322Z,94941.00
2019-01-08T16:17:11.525Z,94945.00
2019-01-08T16:19:52.157Z,94935.00
2019-01-08T16:22:41.710Z,94964.00
2019-01-08T16:25:23.917Z,94928.00
2019-01-08T16:28:05.992Z,94970.00
2019-01-08T16:30:46.244Z,94947.00
2019-01-08T16:33:28.745Z,94947.00
2019-01-08T16:36:18.369Z,94974.00
2019-01-08T16:39:00.665Z,94918.00
2019-01-08T16:41:42.377Z,94920.00
2019-01-08T16:44:24.615Z,94928.00
2019-01-08T16:47:07.668Z,94925.00
2019-01-08T16:49:57.220Z,94924.00
2019-01-08T16:52:39.672Z,94924.00
2019-01-08T16:55:21.849Z,94925.00
2019-01-08T16:58:11.470Z,94917.00
2019-01-08T17:00:53.197Z,94902.00
2019-01-08T17:03:35.481Z,94905.00
2019-01-08T17:06:25.355Z,94898.00
2019-01-08T17:09:07.896Z,94912.00
2019-01-08T17:11:48.267Z,94904.00
2019-01-08T17:14:30.537Z,94885.00
2019-01-08T17:17:39.213Z,94902.00
2019-01-08T17:20:20.572Z,94890.00
2019-01-08T17:23:02.620Z,94886.00
2019-01-08T17:26:11.546Z,94899.00
2019-01-08T17:28:53.806Z,94889.00
2019-01-08T17:32:02.409Z,94900.00
2019-01-08T17:34:44.274Z,94889.00
2019-01-08T17:37:26.175Z,94898.00
2019-01-08T17:43:16.930Z,94890.00
2019-01-08T17:45:59.784Z,94881.00
2019-01-08T17:48:49.486Z,94886.00
2019-01-08T17:55:08.948Z,94858.00
2019-01-08T17:57:52.459Z,94912.00
2019-01-08T18:00:34.482Z,94893.00
2019-01-08T18:03:16.812Z,94880.00
2019-01-08T18:06:25.450Z,94867.00
2019-01-08T18:09:07.821Z,94859.00
2019-01-08T18:12:16.455Z,94837.00
2019-01-08T18:14:58.624Z,94900.00
2019-01-08T18:17:40.725Z,94861.00
2019-01-08T18:21:00.673Z,94840.00
2019-01-08T18:23:43.354Z,94877.00
2019-01-08T18:26:25.867Z,94860.00
2019-01-08T18:29:08.074Z,94848.00
2019-01-08T18:31:54.347Z,94860.00
2019-01-08T18:34:37.440Z,94867.00
2019-01-08T18:37:37.782Z,94855.00
2019-01-08T18:43:23.253Z,94876.00
2019-01-08T18:46:05.801Z,94895.00
2019-01-08T18:49:15.133Z,94855.00
2019-01-08T18:51:57.717Z,94859.00
2019-01-08T18:54:40.737Z,94878.00
2019-01-08T18:57:23.537Z,94869.00
2019-01-08T19:00:06.255Z,94881.00
2019-01-08T19:02:49.131Z,94890.00
2019-01-08T19:09:25.798Z,94911.00
2019-01-08T19:12:09.874Z,94889.00
2019-01-08T19:14:52.006Z,94886.00
2019-01-08T19:17:34.588Z,94892.00
2019-01-08T19:27:36.327Z,94889.00
2019-01-08T19:30:18.626Z,94894.00
2019-01-08T19:33:02.313Z,94892.00
2019-01-08T19:35:43.677Z,94873.00
2019-01-08T19:38:26.537Z,94874.00
2019-01-08T19:41:08.843Z,94873.00
2019-01-08T19:43:52.335Z,94883.00
2019-01-08T19:46:34.739Z,94891.00
2019-01-08T19:49:16.508Z,94891.00
2019-01-08T19:51:58.635Z,94885.00
2019-01-08T19:54:41.151Z,94885.00
2019-01-08T19:57:23.958Z,94893.00
2019-01-08T20:00:08.243Z,94884.00
2019-01-08T20:02:51.473Z,94893.00
2019-01-08T20:05:34.944Z,94897.00
2019-01-08T20:08:18.104Z,94883.00
2019-01-08T20:11:03.285Z,94881.00
2019-01-08T20:13:47.552Z,94889.00
2019-01-08T20:16:30.507Z,94880.00
2019-01-08T20:19:12.894Z,94894.00
2019-01-08T20:21:55.685Z,94885.00
2019-01-08T20:24:38.414Z,94890.00
2019-01-08T20:27:22.968Z,94891.00
2019-01-08T20:30:05.616Z,94875.00
2019-01-08T20:32:48.410Z,94869.00
2019-01-08T20:35:31.407Z,94877.00
2019-01-08T20:38:13.967Z,94880.00
2019-01-08T20:40:54.699Z,94869.00
2019-01-08T20:44:14.320Z,94872.00
2019-01-08T20:46:54.778Z,94866.00
2019-01-08T20:49:38.260Z,94876.00
2019-01-08T20:52:21.290Z,94856.00
2019-01-08T20:55:03.817Z,94851.00
2019-01-08T20:57:50.494Z,94865.00
2019-01-08T21:00:32.496Z,94851.00
2019-01-08T21:03:14.757Z,94844.00
2019-01-08T21:09:12.162Z,94841.00
2019-01-08T21:11:54.878Z,94832.00
2019-01-08T21:17:50.667Z,94843.00
2019-01-08T21:20:33.044Z,94841.00
2019-01-08T21:23:16.220Z,94847.00
2019-01-08T21:26:24.804Z,94840.00
2019-01-08T21:29:06.466Z,94861.00
2019-01-08T21:35:16.370Z,94882.00
2019-01-08T21:37:58.245Z,94861.00
2019-01-08T21:40:40.634Z,94862.00
2019-01-08T21:43:24.996Z,94856.00
2019-01-08T21:46:07.490Z,94851.00
2019-01-08T21:48:49.397Z,94849.00
2019-01-08T21:51:31.715Z,94838.00
2019-01-08T21:54:13.867Z,94852.00
2019-01-08T21:56:56.230Z,94829.00
2019-01-08T21:59:37.977Z,94832.00
2019-01-08T22:02:20.101Z,94835.00
2019-01-08T22:05:02.836Z,94828.00
2019-01-08T22:07:44.813Z,94826.00
2019-01-08T22:10:27.062Z,94826.00
2019-01-08T22:13:09.324Z,94825.00
2019-01-08T22:15:51.653Z,94821.00
2019-01-08T22:18:33.211Z,94831.00
2019-01-08T22:21:15.497Z,94831.00
2019-01-08T22:23:58.827Z,94824.00
2019-01-08T22:26:41.134Z,94812.00
2019-01-08T22:29:30.675Z,94808.00
2019-01-08T22:32:20.221Z,94817.00
2019-01-08T22:35:02.917Z,94803.00
2019-01-08T22:37:45.350Z,94800.00
2019-01-08T22:44:02.276Z,94787.00
2019-01-08T22:46:44.446Z,94780.00
2019-01-08T22:49:26.570Z,94781.00
2019-01-08T22:52:08.670Z,94775.00
2019-01-08T22:54:53.093Z,94782.00
2019-01-08T22:57:35.791Z,94770.00
2019-01-08T23:00:38.756Z,94829.00
2019-01-08T23:03:21.749Z,94774.00
2019-01-08T23:06:04.409Z,94760.00
2019-01-08T23:08:46.373Z,94756.00
2019-01-08T23:11:28.126Z,94749.00
2019-01-08T23:14:10.275Z,94754.00
2019-01-08T23:16:52.778Z,94765.00
2019-01-08T23:19:35.212Z,94758.00
2019-01-08T23:22:17.351Z,94741.00
2019-01-08T23:25:00.761Z,94756.00
2019-01-08T23:27:41.359Z,94747.00
2019-01-08T23:30:23.718Z,94726.00
2019-01-08T23:33:13.304Z,94740.00
2019-01-08T23:35:53.800Z,94736.00
2019-01-08T23:38:36.127Z,94736.00
2019-01-08T23:44:26.272Z,94732.00
2019-01-08T23:47:08.416Z,94730.00
2019-01-08T23:49:57.955Z,94764.00
2019-01-08T23:53:07.183Z,94734.00
2019-01-08T23:55:50.944Z,94736.00
2019-01-08T23:58:32.725Z,94717.00
